Time;durP1;ratioP1;P1;durP2;ratioP2;P2;SDS_P1;SDS_P2;PMS_P1;PMS_P2;Temp;Humidity;BMP_temperature;BMP_pressure;BME280_temperature;BME280_humidity;BME280_pressure;Samples;Min_cycle;Max_cycle;Signal;HPM_P1;HPM_P2
2020/12/16 00:01:17;;;;;;;68.50;34.27;;;;;;;1.13;86.66;100434.33;126671;1098;104451;-77
2020/12/16 00:03:45;;;;;;;67.40;34.30;;;;;;;1.12;86.57;100427.47;126628;1092;104611;-77
2020/12/16 00:06:14;;;;;;;64.40;34.73;;;;;;;1.11;86.57;100426.61;126641;1092;104469;-77
2020/12/16 00:08:42;;;;;;;65.40;34.83;;;;;;;1.12;86.46;100422.33;126483;1100;104394;-78
2020/12/16 00:11:09;;;;;;;67.27;34.50;;;;;;;1.12;86.57;100417.20;126679;1093;104547;-77
2020/12/16 00:13:36;;;;;;;66.87;36.10;;;;;;;1.12;86.48;100423.19;126687;1093;104451;-77
2020/12/16 00:16:04;;;;;;;63.20;33.47;;;;;;;1.11;86.29;100420.61;126653;1093;104413;-77
2020/12/16 00:18:31;;;;;;;63.33;33.23;;;;;;;1.12;86.56;100422.33;126734;1093;104526;-76
2020/12/16 00:20:59;;;;;;;64.43;34.27;;;;;;;1.13;86.75;100418.91;126683;1093;105003;-77
2020/12/16 00:23:26;;;;;;;63.83;33.60;;;;;;;1.13;86.83;100416.34;126404;1097;104497;-77
2020/12/16 00:25:53;;;;;;;63.80;34.27;;;;;;;1.13;86.29;100424.91;126607;1098;104497;-79
2020/12/16 00:28:20;;;;;;;65.87;35.17;;;;;;;1.15;86.47;100407.80;126495;1100;104474;-77
2020/12/16 00:30:48;;;;;;;63.43;35.03;;;;;;;1.15;86.23;100415.51;126685;1098;104481;-78
2020/12/16 00:33:17;;;;;;;61.50;33.45;;;;;;;1.15;86.34;100417.22;126662;1098;104461;-77
2020/12/16 00:35:45;;;;;;;63.80;33.97;;;;;;;1.16;86.36;100414.66;126472;1093;104471;-78
2020/12/16 00:38:14;;;;;;;64.83;35.33;;;;;;;1.17;86.59;100416.37;126456;1096;104566;-78
2020/12/16 00:40:41;;;;;;;62.60;34.23;;;;;;;1.19;86.19;100419.81;126677;1093;104324;-77
2020/12/16 00:43:08;;;;;;;62.20;33.83;;;;;;;1.20;86.06;100411.27;126691;1093;104551;-77
2020/12/16 00:45:35;;;;;;;66.50;35.78;;;;;;;1.21;86.20;100419.83;126720;1093;104414;-77
2020/12/16 00:48:03;;;;;;;66.50;35.50;;;;;;;1.23;86.19;100430.11;126455;1097;105045;-76
2020/12/16 00:50:31;;;;;;;65.72;35.30;;;;;;;1.23;86.22;100423.27;126800;1098;104366;-77
2020/12/16 00:53:04;;;;;;;63.17;34.77;;;;;;;1.23;86.09;100430.11;126516;1094;104369;-76
2020/12/16 00:55:37;;;;;;;65.03;33.57;;;;;;;1.23;85.92;100424.98;126502;1093;102760;-77
2020/12/16 00:58:05;;;;;;;57.33;32.13;;;;;;;1.25;86.02;100428.41;126488;1099;104723;-77
2020/12/16 01:00:35;;;;;;;57.33;31.60;;;;;;;1.24;85.98;100442.97;126584;1098;104563;-78
2020/12/16 01:03:05;;;;;;;62.77;32.30;;;;;;;1.24;85.90;100432.69;126692;1093;104474;-77
2020/12/16 01:05:33;;;;;;;65.53;35.33;;;;;;;1.25;86.08;100428.41;126407;1100;104288;-78
2020/12/16 01:08:01;;;;;;;61.47;33.20;;;;;;;1.25;86.04;100434.41;126427;1099;104525;-77
2020/12/16 01:10:29;;;;;;;62.57;33.00;;;;;;;1.25;86.13;100428.41;126773;1093;104545;-78
2020/12/16 01:12:57;;;;;;;63.77;32.13;;;;;;;1.26;85.61;100435.27;126469;1096;104541;-78
2020/12/16 01:15:26;;;;;;;66.10;35.65;;;;;;;1.25;86.04;100428.41;126683;1093;104286;-77
2020/12/16 01:18:00;;;;;;;58.75;32.30;;;;;;;1.26;85.92;100428.45;126692;1093;104423;-77
2020/12/16 01:20:34;;;;;;;64.53;34.30;;;;;;;1.25;85.68;100415.56;126700;1098;104385;-77
2020/12/16 01:23:17;;;;;;;61.17;34.07;;;;;;;1.26;85.78;100425.00;126681;1093;104503;-77
2020/12/16 01:25:44;;;;;;;63.93;33.70;;;;;;;1.24;85.73;100416.42;126470;1093;103608;-77
2020/12/16 01:28:12;;;;;;;60.00;33.53;;;;;;;1.24;85.75;100426.70;126681;1093;104394;-78
2020/12/16 01:30:46;;;;;;;64.93;34.67;;;;;;;1.21;85.79;100425.83;126514;1099;104373;-77
2020/12/16 01:33:14;;;;;;;62.23;33.23;;;;;;;1.20;85.64;100421.53;126576;1093;103402;-78
2020/12/16 01:35:42;;;;;;;59.33;33.10;;;;;;;1.20;85.67;100416.40;126663;1098;104420;-78
2020/12/16 01:38:10;;;;;;;60.53;32.73;;;;;;;1.20;85.95;100421.53;126653;1099;104286;-77
2020/12/16 01:40:40;;;;;;;57.97;32.20;;;;;;;1.20;85.72;100431.81;126674;1093;104923;-76
2020/12/16 01:43:07;;;;;;;62.13;33.00;;;;;;;1.19;85.66;100424.09;126691;1098;104466;-78
2020/12/16 01:45:36;;;;;;;61.33;34.20;;;;;;;1.19;85.85;100429.23;126531;1093;104475;-77
2020/12/16 01:48:03;;;;;;;60.70;33.50;;;;;;;1.18;85.67;100423.23;126417;1093;104846;-77
2020/12/16 01:50:31;;;;;;;58.93;32.73;;;;;;;1.18;85.83;100440.36;126627;1093;104657;-77
2020/12/16 01:53:01;;;;;;;59.00;33.03;;;;;;;1.17;85.96;100439.50;126493;1098;104202;-77
2020/12/16 01:55:55;;;;;;;61.83;33.00;;;;;;;1.16;85.99;100431.78;126489;1093;104471;-77
2020/12/16 01:58:41;;;;;;;59.47;32.27;;;;;;;1.17;85.65;100444.63;126637;1092;104506;-77
2020/12/16 02:01:17;;;;;;;64.30;32.93;;;;;;;1.17;85.82;100441.20;126498;1098;104486;-78
2020/12/16 02:03:46;;;;;;;61.03;32.13;;;;;;;1.15;85.74;100433.48;126671;1098;104455;-77
2020/12/16 02:06:20;;;;;;;58.73;31.73;;;;;;;1.16;85.83;100432.64;126676;1099;104532;-77
2020/12/16 02:09:00;;;;;;;60.07;32.50;;;;;;;1.17;85.77;100442.06;126723;1093;104449;-78
2020/12/16 02:11:28;;;;;;;59.03;31.97;;;;;;;1.15;85.95;100428.35;126690;1093;104372;-77
2020/12/16 02:14:00;;;;;;;59.90;32.80;;;;;;;1.15;85.81;100433.48;126666;1093;104509;-77
2020/12/16 02:16:28;;;;;;;60.27;32.50;;;;;;;1.14;85.79;100434.34;126592;1093;104529;-77
2020/12/16 02:18:58;;;;;;;64.57;32.83;;;;;;;1.13;85.83;100426.63;126654;1093;104673;-78
2020/12/16 02:21:33;;;;;;;60.63;33.23;;;;;;;1.12;85.69;100424.90;126658;1093;104528;-76
2020/12/16 02:24:10;;;;;;;61.33;33.67;;;;;;;1.10;85.65;100427.46;126472;1094;104432;-77
2020/12/16 02:26:40;;;;;;;61.27;32.53;;;;;;;1.09;85.63;100435.16;126451;1093;104490;-78
2020/12/16 02:29:09;;;;;;;62.57;32.93;;;;;;;1.05;85.69;100426.53;126796;1098;104486;-78
2020/12/16 02:31:38;;;;;;;63.07;32.93;;;;;;;1.03;85.81;100417.95;126508;1096;104407;-77
2020/12/16 02:34:09;;;;;;;65.00;34.35;;;;;;;1.02;85.69;100418.80;126453;1097;104407;-77
2020/12/16 02:36:40;;;;;;;64.27;32.80;;;;;;;1.00;85.93;100407.66;126515;1098;102034;-77
2020/12/16 02:39:12;;;;;;;63.63;32.73;;;;;;;0.99;85.64;100417.92;126650;1093;104593;-77
2020/12/16 02:41:49;;;;;;;65.40;33.07;;;;;;;0.96;86.17;100411.05;126401;1093;104459;-77
2020/12/16 02:44:17;;;;;;;68.57;35.17;;;;;;;0.95;86.18;100423.88;126672;1093;104414;-76
2020/12/16 02:47:08;;;;;;;65.30;35.37;;;;;;;0.93;85.85;100415.31;126498;1096;104381;-77
2020/12/16 02:49:38;;;;;;;65.13;34.90;;;;;;;0.92;86.08;100413.59;126692;1093;104506;-78
2020/12/16 02:52:06;;;;;;;62.65;33.50;;;;;;;0.91;85.94;100417.86;126681;1098;104545;-77
2020/12/16 02:54:33;;;;;;;65.00;35.03;;;;;;;0.90;85.95;100417.00;126452;1093;104218;-77
2020/12/16 02:57:17;;;;;;;68.15;33.95;;;;;;;0.90;85.88;100411.87;126710;1093;104459;-79
2020/12/16 03:00:05;;;;;;;64.80;34.17;;;;;;;0.89;86.26;100406.69;126678;1093;104365;-77
2020/12/16 03:02:54;;;;;;;66.87;34.50;;;;;;;0.86;86.02;100402.39;126701;1098;104381;-77
2020/12/16 03:05:44;;;;;;;66.13;33.60;;;;;;;0.87;85.98;100416.09;126690;1099;104558;-77
2020/12/16 03:08:19;;;;;;;63.13;32.97;;;;;;;0.87;86.06;100416.09;126650;1093;104593;-77
2020/12/16 03:10:55;;;;;;;60.37;33.00;;;;;;;0.87;86.13;100408.38;126626;1093;104269;-77
2020/12/16 03:13:23;;;;;;;60.70;32.30;;;;;;;0.86;85.91;100412.66;126657;1093;104592;-77
2020/12/16 03:15:50;;;;;;;64.10;35.30;;;;;;;0.87;86.11;100421.22;126676;1093;104438;-77
2020/12/16 03:18:20;;;;;;;61.67;31.70;;;;;;;0.86;86.07;100425.50;126695;1093;104477;-77
2020/12/16 03:20:49;;;;;;;64.37;34.50;;;;;;;0.85;86.18;100428.05;126509;1093;104603;-77
2020/12/16 03:23:16;;;;;;;66.13;34.83;;;;;;;0.84;86.07;100428.90;126704;1093;105368;-78
2020/12/16 03:26:10;;;;;;;62.50;33.43;;;;;;;0.83;86.05;100432.31;126530;1099;104963;-78
2020/12/16 03:28:58;;;;;;;62.57;33.53;;;;;;;0.81;86.03;100428.88;126677;1093;102873;-78
2020/12/16 03:31:46;;;;;;;67.43;34.07;;;;;;;0.80;86.03;100419.45;126684;1093;104362;-78
2020/12/16 03:34:33;;;;;;;63.53;32.90;;;;;;;0.79;85.88;100430.56;126368;1093;104592;-77
2020/12/16 03:37:08;;;;;;;56.13;30.90;;;;;;;0.79;86.05;100435.70;126728;1098;105215;-78
2020/12/16 03:39:36;;;;;;;63.60;32.97;;;;;;;0.78;85.96;100441.69;126447;1093;104494;-78
2020/12/16 03:42:04;;;;;;;64.73;34.20;;;;;;;0.79;86.09;100443.41;126693;1098;104545;-77
2020/12/16 03:44:33;;;;;;;63.23;33.50;;;;;;;0.80;86.03;100450.27;126674;1099;104947;-77
2020/12/16 03:47:02;;;;;;;65.00;33.67;;;;;;;0.82;86.21;100453.70;126663;1093;104576;-77
2020/12/16 03:49:29;;;;;;;61.00;32.03;;;;;;;0.80;85.69;100458.83;126724;1093;104488;-77
2020/12/16 03:51:58;;;;;;;60.17;33.50;;;;;;;0.81;86.15;100451.98;126665;1093;104369;-77
2020/12/16 03:54:56;;;;;;;61.10;32.17;;;;;;;0.81;85.99;100450.27;126684;1098;104432;-77
2020/12/16 03:57:43;;;;;;;64.50;34.30;;;;;;;0.82;85.81;100457.13;126699;1093;104452;-75
2020/12/16 04:00:31;;;;;;;67.83;35.57;;;;;;;0.84;86.02;100452.01;126610;1093;104423;-76
2020/12/16 04:03:03;;;;;;;64.93;35.17;;;;;;;0.85;86.00;100453.73;126346;1093;104494;-76
2020/12/16 04:05:44;;;;;;;66.57;33.13;;;;;;;0.86;86.03;100455.45;126646;1098;104439;-77
2020/12/16 04:08:11;;;;;;;66.27;34.03;;;;;;;0.85;85.77;100454.59;126393;1097;104392;-77
2020/12/16 04:10:57;;;;;;;63.03;32.03;;;;;;;0.86;85.85;100460.58;126714;1098;103475;-77
2020/12/16 04:13:25;;;;;;;61.93;33.27;;;;;;;0.83;85.94;100460.56;126445;1093;104244;-77
2020/12/16 04:15:52;;;;;;;68.40;34.95;;;;;;;0.82;85.67;100464.83;126676;1099;104462;-77
2020/12/16 04:18:20;;;;;;;63.60;32.67;;;;;;;0.83;85.75;100460.56;126683;1093;104401;-78
2020/12/16 04:20:47;;;;;;;64.13;34.00;;;;;;;0.84;85.64;100467.41;126475;1099;104458;-77
2020/12/16 04:23:15;;;;;;;67.40;35.60;;;;;;;0.84;85.62;100457.14;126620;1093;104397;-77
2020/12/16 04:25:45;;;;;;;70.07;35.80;;;;;;;0.85;85.71;100458.86;126405;1096;105109;-77
2020/12/16 04:28:14;;;;;;;62.97;34.10;;;;;;;0.86;85.73;100461.45;126464;1093;104530;-77
2020/12/16 04:30:41;;;;;;;65.70;35.20;;;;;;;0.86;85.62;100461.45;126651;1093;104395;-77
2020/12/16 04:33:09;;;;;;;69.40;35.75;;;;;;;0.85;85.35;100453.73;126739;1093;104340;-76
2020/12/16 04:35:36;;;;;;;69.85;36.30;;;;;;;0.85;85.65;100458.86;126532;1100;104401;-78
2020/12/16 04:38:04;;;;;;;68.13;36.13;;;;;;;0.86;85.44;100452.88;126436;1097;104487;-77
2020/12/16 04:40:34;;;;;;;67.17;34.60;;;;;;;0.84;85.32;100452.01;126435;1100;104525;-77
2020/12/16 04:43:20;;;;;;;73.73;37.93;;;;;;;0.84;85.70;100449.44;126431;1098;104368;-76
2020/12/16 04:45:49;;;;;;;67.20;34.63;;;;;;;0.83;85.31;100451.15;126674;1098;104417;-77
2020/12/16 04:48:18;;;;;;;69.13;36.93;;;;;;;0.84;85.57;100457.14;126676;1093;104575;-77
2020/12/16 04:50:53;;;;;;;71.17;35.73;;;;;;;0.84;85.60;100462.28;126657;1093;104481;-77
2020/12/16 04:53:24;;;;;;;67.10;35.70;;;;;;;0.82;85.46;100462.27;126709;1093;104513;-78
2020/12/16 04:56:01;;;;;;;66.30;35.07;;;;;;;0.82;85.33;100467.40;126630;1098;106422;-77
2020/12/16 04:59:06;;;;;;;69.70;36.30;;;;;;;0.79;85.52;100454.53;126296;1096;104817;-77
2020/12/16 05:01:41;;;;;;;67.27;35.60;;;;;;;0.80;85.56;100455.39;126639;1098;104511;-77
2020/12/16 05:04:14;;;;;;;67.57;34.63;;;;;;;0.80;85.27;100453.69;126413;1099;104484;-77
2020/12/16 05:06:48;;;;;;;65.50;35.30;;;;;;;0.80;85.51;100452.83;126472;1093;104467;-76
2020/12/16 05:09:16;;;;;;;70.40;35.80;;;;;;;0.80;85.29;100453.69;126473;1098;104401;-77
2020/12/16 05:11:46;;;;;;;65.05;35.20;;;;;;;0.81;85.48;100457.12;126718;1098;105224;-77
2020/12/16 05:14:22;;;;;;;65.17;34.93;;;;;;;0.81;85.48;100446.84;126514;1093;104517;-77
2020/12/16 05:17:13;;;;;;;69.90;35.97;;;;;;;0.81;85.46;100434.88;126408;1096;104413;-77
2020/12/16 05:19:50;;;;;;;65.00;34.90;;;;;;;0.83;85.20;100427.18;126691;1093;104827;-77
2020/12/16 05:22:22;;;;;;;61.70;33.47;;;;;;;0.84;85.23;100436.60;126603;1093;104490;-78
2020/12/16 05:24:53;;;;;;;64.73;33.10;;;;;;;0.83;85.19;100427.18;126482;1095;104408;-77
2020/12/16 05:27:26;;;;;;;69.03;35.47;;;;;;;0.84;85.32;100436.60;126653;1098;104519;-77
2020/12/16 05:29:57;;;;;;;66.20;35.37;;;;;;;0.84;85.28;100440.03;126500;1100;103269;-77
2020/12/16 05:32:27;;;;;;;63.73;35.57;;;;;;;0.85;85.24;100448.59;126452;1098;104262;-77
2020/12/16 05:34:58;;;;;;;63.33;33.97;;;;;;;0.86;85.05;100450.31;126587;1093;104369;-76
2020/12/16 05:37:28;;;;;;;65.73;35.73;;;;;;;0.87;84.96;100459.73;126468;1093;104454;-77
2020/12/16 05:40:07;;;;;;;63.23;32.07;;;;;;;0.87;85.19;100475.14;126687;1098;104477;-77
2020/12/16 05:42:34;;;;;;;68.03;36.37;;;;;;;0.86;84.91;100469.15;126414;1093;104292;-77
2020/12/16 05:45:36;;;;;;;65.23;33.77;;;;;;;0.87;85.38;100478.57;126449;1099;104475;-77
2020/12/16 05:48:11;;;;;;;61.43;30.57;;;;;;;0.89;85.07;100478.59;126600;1093;104371;-77
2020/12/16 05:50:41;;;;;;;63.73;33.07;;;;;;;0.88;85.15;100472.59;126700;1093;104434;-77
2020/12/16 05:53:13;;;;;;;65.80;34.13;;;;;;;0.89;85.32;100476.02;126625;1099;104557;-78
2020/12/16 05:56:02;;;;;;;65.13;35.07;;;;;;;0.91;85.07;100469.22;126511;1093;104474;-77
2020/12/16 05:58:32;;;;;;;64.23;34.43;;;;;;;0.92;85.14;100470.94;126473;1093;104369;-77
2020/12/16 06:01:05;;;;;;;68.20;35.90;;;;;;;0.92;85.15;100470.94;126716;1093;104397;-78
2020/12/16 06:03:38;;;;;;;66.07;33.93;;;;;;;0.94;85.06;100484.66;126549;1093;104580;-76
2020/12/16 06:06:06;;;;;;;67.93;35.50;;;;;;;0.94;84.87;100482.09;126483;1100;104495;-77
2020/12/16 06:08:34;;;;;;;63.63;33.57;;;;;;;0.94;84.97;100482.09;126654;1093;104387;-77
2020/12/16 06:11:04;;;;;;;72.63;36.60;;;;;;;0.93;84.71;100471.80;126709;1093;104420;-77
2020/12/16 06:13:31;;;;;;;65.30;33.27;;;;;;;0.94;84.79;100469.25;126701;1093;105661;-77
2020/12/16 06:16:01;;;;;;;65.70;35.53;;;;;;;0.93;84.80;100470.09;126380;1099;104433;-77
2020/12/16 06:18:30;;;;;;;63.77;33.43;;;;;;;0.93;85.01;100464.95;126451;1095;104567;-77
2020/12/16 06:20:59;;;;;;;64.77;34.50;;;;;;;0.96;84.92;100470.13;126623;1093;105191;-78
2020/12/16 06:23:41;;;;;;;65.55;34.65;;;;;;;0.96;84.88;100459.84;126538;1093;104963;-77
2020/12/16 06:26:14;;;;;;;62.40;33.83;;;;;;;0.97;85.02;100459.00;126617;1093;104391;-77
2020/12/16 06:28:42;;;;;;;63.93;33.90;;;;;;;0.99;84.92;100462.44;126680;1099;104391;-77
2020/12/16 06:31:22;;;;;;;62.60;32.40;;;;;;;1.03;84.92;100474.46;126712;1093;104391;-77
2020/12/16 06:33:52;;;;;;;64.83;34.30;;;;;;;1.04;84.63;100465.05;126629;1098;104209;-78
2020/12/16 06:36:20;;;;;;;64.30;33.67;;;;;;;1.04;84.87;100476.18;126711;1099;104530;-77
2020/12/16 06:38:49;;;;;;;63.87;34.40;;;;;;;1.06;84.75;100479.62;126424;1095;104493;-78
2020/12/16 06:41:21;;;;;;;66.00;34.37;;;;;;;1.07;84.53;100485.62;126393;1093;104411;-77
2020/12/16 06:43:54;;;;;;;57.20;31.33;;;;;;;1.07;84.81;100481.34;126658;1093;104674;-78
2020/12/16 06:46:31;;;;;;;61.80;32.00;;;;;;;1.07;84.58;100476.20;126458;1097;104536;-78
2020/12/16 06:49:00;;;;;;;61.40;31.68;;;;;;;1.10;84.57;100475.41;126673;1093;104423;-78
2020/12/16 06:51:30;;;;;;;57.23;30.73;;;;;;;1.10;84.69;100486.54;126427;1093;104894;-78
2020/12/16 06:54:09;;;;;;;60.03;31.60;;;;;;;1.12;84.60;100479.70;126718;1093;104856;-77
2020/12/16 06:56:41;;;;;;;60.83;31.37;;;;;;;1.17;84.41;100484.87;126663;1093;104479;-78
2020/12/16 06:59:09;;;;;;;62.63;32.87;;;;;;;1.20;84.72;100488.33;126659;1093;104541;-78
2020/12/16 07:01:36;;;;;;;64.73;33.57;;;;;;;1.25;84.52;100484.94;126455;1100;104395;-77
2020/12/16 07:04:03;;;;;;;59.80;31.00;;;;;;;1.30;84.49;100491.00;126667;1093;104408;-78
2020/12/16 07:06:31;;;;;;;58.80;30.13;;;;;;;1.34;84.30;100490.18;126677;1093;104403;-77
2020/12/16 07:09:20;;;;;;;60.25;30.92;;;;;;;1.38;84.39;100497.06;126674;1093;104435;-78
2020/12/16 07:11:49;;;;;;;58.80;28.57;;;;;;;1.43;84.14;100497.95;126629;1093;104541;-77
2020/12/16 07:14:22;;;;;;;54.30;26.20;;;;;;;1.47;84.07;100502.30;126701;1093;104387;-78
2020/12/16 07:16:49;;;;;;;50.80;26.70;;;;;;;1.49;84.07;100498.03;126411;1093;104247;-78
2020/12/16 07:19:26;;;;;;;52.90;28.30;;;;;;;1.54;83.75;100504.06;126537;1098;104830;-78
2020/12/16 07:21:57;;;;;;;52.93;27.77;;;;;;;1.56;83.56;100517.78;126487;1100;104529;-78
2020/12/16 07:24:24;;;;;;;57.17;30.90;;;;;;;1.60;83.86;100516.09;126666;1098;104215;-78
2020/12/16 07:26:55;;;;;;;59.20;30.33;;;;;;;1.63;83.93;100524.72;126444;1099;105705;-79
2020/12/16 07:29:29;;;;;;;50.63;26.37;;;;;;;1.65;83.74;100523.02;126755;1093;102859;-78
2020/12/16 07:31:59;;;;;;;43.93;22.93;;;;;;;1.65;83.64;100525.59;126621;1098;104503;-79
2020/12/16 07:34:28;;;;;;;52.17;28.03;;;;;;;1.67;83.77;100536.75;126680;1093;103276;-78
2020/12/16 07:37:01;;;;;;;52.50;27.33;;;;;;;1.71;83.29;100537.63;126667;1093;102886;-78
2020/12/16 07:39:30;;;;;;;51.43;27.73;;;;;;;1.73;83.49;100531.64;126436;1100;104397;-79
2020/12/16 07:42:00;;;;;;;50.43;26.27;;;;;;;1.75;83.50;100532.52;126677;1093;104439;-79
2020/12/16 07:44:28;;;;;;;46.37;25.03;;;;;;;1.78;83.08;100544.53;126702;1098;104497;-79
2020/12/16 07:47:01;;;;;;;50.57;26.60;;;;;;;1.81;83.33;100549.73;126632;1098;104262;-79
2020/12/16 07:49:29;;;;;;;40.20;21.97;;;;;;;1.87;82.95;100543.77;126410;1100;104202;-78
2020/12/16 07:52:01;;;;;;;46.47;25.43;;;;;;;1.92;83.50;100554.94;126388;1093;104445;-77
2020/12/16 07:54:30;;;;;;;48.70;24.53;;;;;;;1.98;82.82;100555.00;126484;1099;104365;-78
2020/12/16 07:57:00;;;;;;;41.30;22.40;;;;;;;2.02;82.91;100549.03;126498;1093;104669;-77
2020/12/16 07:59:33;;;;;;;37.60;21.57;;;;;;;2.05;82.88;100549.05;126717;1093;103830;-77
2020/12/16 08:02:08;;;;;;;39.10;22.40;;;;;;;2.08;82.49;100546.48;126455;1093;104525;-78
2020/12/16 08:04:38;;;;;;;44.90;23.55;;;;;;;2.09;82.56;100549.06;126660;1093;104361;-77
2020/12/16 08:07:17;;;;;;;48.20;23.93;;;;;;;2.11;82.50;100559.37;126431;1093;104391;-77
2020/12/16 08:10:00;;;;;;;40.43;21.40;;;;;;;2.15;82.44;100567.97;126512;1096;104458;-78
2020/12/16 08:12:32;;;;;;;39.43;22.03;;;;;;;2.16;82.74;100568.00;126725;1093;105063;-77
2020/12/16 08:15:17;;;;;;;44.80;23.90;;;;;;;2.18;82.35;100563.73;126675;1093;104642;-78
2020/12/16 08:17:51;;;;;;;46.63;22.93;;;;;;;2.22;82.10;100569.75;126662;1093;104476;-78
2020/12/16 08:20:21;;;;;;;47.97;25.33;;;;;;;2.27;82.67;100570.63;126573;1093;104560;-77
2020/12/16 08:22:55;;;;;;;45.33;23.57;;;;;;;2.34;82.37;100562.98;126413;1098;104542;-77
2020/12/16 08:25:23;;;;;;;42.90;23.13;;;;;;;2.40;81.94;100563.00;126413;1098;104535;-78
2020/12/16 08:27:56;;;;;;;41.27;23.43;;;;;;;2.46;82.44;100563.88;126570;1093;104417;-77
2020/12/16 08:30:28;;;;;;;46.37;24.40;;;;;;;2.58;82.32;100571.69;126685;1099;104401;-77
2020/12/16 08:33:07;;;;;;;42.27;23.23;;;;;;;2.67;82.35;100563.99;126674;1093;104372;-78
2020/12/16 08:35:45;;;;;;;45.13;24.17;;;;;;;2.76;82.42;100566.63;126678;1098;104438;-78
2020/12/16 08:38:17;;;;;;;41.23;22.13;;;;;;;2.83;81.70;100568.37;126694;1098;104490;-78
2020/12/16 08:40:46;;;;;;;46.23;23.53;;;;;;;2.84;81.93;100570.09;126611;1094;104499;-78
2020/12/16 08:43:29;;;;;;;51.87;23.97;;;;;;;2.94;81.87;100574.44;126382;1098;104907;-77
2020/12/16 08:46:09;;;;;;;41.10;22.63;;;;;;;3.05;82.10;100584.77;126638;1093;104452;-77
2020/12/16 08:48:45;;;;;;;42.53;23.37;;;;;;;3.10;81.48;100588.25;126621;1098;104417;-77
2020/12/16 08:51:15;;;;;;;;;;;;;;;3.15;81.28;100580.52;126700;1093;104429;-77
2020/12/16 08:53:49;;;;;;;36.45;21.00;;;;;;;3.20;81.56;100583.97;126590;1093;104917;-78
2020/12/16 08:56:24;;;;;;;44.13;21.83;;;;;;;3.26;81.07;100581.43;126470;1094;104408;-78
2020/12/16 08:59:09;;;;;;;37.30;19.27;;;;;;;3.29;80.99;100584.01;126667;1098;104391;-79
2020/12/16 09:01:38;;;;;;;46.50;21.07;;;;;;;3.30;80.86;100581.44;126670;1098;104440;-77
2020/12/16 09:04:07;;;;;;;33.67;19.23;;;;;;;3.34;81.39;100582.30;126620;1098;104485;-78
2020/12/16 09:06:35;;;;;;;34.15;18.55;;;;;;;3.39;80.54;100584.88;126611;1093;104478;-78
2020/12/16 09:09:15;;;;;;;35.87;18.53;;;;;;;3.41;80.41;100578.89;126724;1098;104490;-77
2020/12/16 09:11:47;;;;;;;35.83;18.83;;;;;;;3.46;80.85;100579.75;126507;1093;104452;-77
2020/12/16 09:14:15;;;;;;;32.90;19.20;;;;;;;3.53;80.69;100572.87;126451;1093;104472;-77
2020/12/16 09:16:43;;;;;;;33.23;18.63;;;;;;;3.57;80.97;100582.33;126432;1098;104531;-77
2020/12/16 09:19:23;;;;;;;32.20;18.83;;;;;;;3.61;80.17;100576.34;126433;1095;104494;-77
2020/12/16 09:21:59;;;;;;;32.53;18.37;;;;;;;3.63;80.30;100590.11;126720;1098;104403;-78
2020/12/16 09:24:26;;;;;;;35.17;18.30;;;;;;;3.66;80.34;100584.08;126584;1093;104501;-77
2020/12/16 09:26:59;;;;;;;31.43;18.63;;;;;;;3.69;80.54;100590.10;126611;1093;104406;-77
2020/12/16 09:29:29;;;;;;;34.57;19.07;;;;;;;3.72;79.93;100573.77;126618;1098;104495;-78
2020/12/16 09:32:11;;;;;;;30.87;17.10;;;;;;;3.72;80.11;100571.18;126593;1098;104606;-78
2020/12/16 09:34:50;;;;;;;30.20;18.13;;;;;;;3.77;80.36;100572.03;126644;1093;104448;-77
2020/12/16 09:37:28;;;;;;;33.13;18.00;;;;;;;3.76;79.67;100580.64;126477;1093;104430;-78
2020/12/16 09:40:28;;;;;;;29.20;17.97;;;;;;;3.78;79.73;100584.11;126505;1093;104359;-78
2020/12/16 09:42:59;;;;;;;29.13;17.13;;;;;;;3.82;79.73;100585.83;126672;1093;103347;-77
2020/12/16 09:45:31;;;;;;;32.80;18.00;;;;;;;3.81;80.00;100589.27;126465;1093;104893;-77
2020/12/16 09:47:59;;;;;;;30.37;17.73;;;;;;;3.80;79.94;100584.97;126640;1094;104555;-77
2020/12/16 09:50:29;;;;;;;29.77;18.17;;;;;;;3.82;79.72;100590.98;126456;1100;104475;-78
2020/12/16 09:52:59;;;;;;;30.93;18.13;;;;;;;3.85;79.59;100589.26;126665;1098;104561;-78
2020/12/16 09:55:28;;;;;;;28.10;17.43;;;;;;;3.89;80.28;100577.21;126669;1098;104368;-77
2020/12/16 09:58:12;;;;;;;35.30;19.10;;;;;;;3.90;80.21;100581.52;126427;1093;104394;-78
2020/12/16 10:00:41;;;;;;;30.30;17.80;;;;;;;3.96;79.94;100584.12;126693;1093;104453;-78
2020/12/16 10:03:11;;;;;;;35.43;19.17;;;;;;;3.96;80.00;100588.42;126475;1100;104398;-77
2020/12/16 10:05:40;;;;;;;34.70;19.97;;;;;;;3.98;79.88;100592.72;126736;1098;104516;-78
2020/12/16 10:08:14;;;;;;;33.47;19.20;;;;;;;4.01;79.92;100584.97;126706;1093;104561;-78
2020/12/16 10:10:44;;;;;;;38.83;20.70;;;;;;;4.02;79.99;100589.27;126691;1093;104574;-78
2020/12/16 10:13:12;;;;;;;36.63;19.80;;;;;;;4.03;79.36;100588.41;126741;1098;104490;-77
2020/12/16 10:15:39;;;;;;;36.03;19.57;;;;;;;4.04;79.96;100590.13;126452;1093;104528;-77
2020/12/16 10:18:07;;;;;;;37.80;20.37;;;;;;;4.08;79.92;100578.93;126397;1100;104382;-77
2020/12/16 10:20:34;;;;;;;36.27;20.63;;;;;;;4.10;80.05;100586.67;126614;1093;104820;-77
2020/12/16 10:23:02;;;;;;;37.05;21.10;;;;;;;4.14;79.33;100578.95;126377;1097;104513;-77
2020/12/16 10:25:30;;;;;;;38.33;21.53;;;;;;;4.17;79.84;100589.27;126560;1093;104545;-77
2020/12/16 10:27:58;;;;;;;41.97;20.80;;;;;;;4.12;79.11;100590.97;126626;1093;104356;-78
2020/12/16 10:30:27;;;;;;;38.70;20.23;;;;;;;4.12;79.37;100601.30;126619;1098;104550;-79
2020/12/16 10:32:56;;;;;;;39.20;21.23;;;;;;;4.14;79.64;100601.32;126795;1098;104517;-78
2020/12/16 10:35:24;;;;;;;36.67;20.87;;;;;;;4.14;79.33;100599.59;126670;1093;104468;-78
2020/12/16 10:37:52;;;;;;;41.30;21.00;;;;;;;4.12;79.88;100595.27;126773;1093;104428;-78
2020/12/16 10:40:20;;;;;;;40.30;20.60;;;;;;;4.17;79.36;100609.92;126640;1098;104503;-78
2020/12/16 10:42:48;;;;;;;36.13;21.13;;;;;;;4.20;79.13;100601.31;126507;1099;104420;-78
2020/12/16 10:45:15;;;;;;;39.20;21.50;;;;;;;4.20;79.12;100606.47;126559;1098;105643;-77
2020/12/16 10:47:43;;;;;;;38.73;22.60;;;;;;;4.20;79.73;100602.17;126377;1093;104529;-77
2020/12/16 10:50:11;;;;;;;42.07;22.10;;;;;;;4.22;79.31;100603.02;126418;1093;104541;-77
2020/12/16 10:52:39;;;;;;;40.40;22.27;;;;;;;4.27;78.99;100609.89;126644;1093;104349;-78
2020/12/16 10:55:06;;;;;;;37.80;21.60;;;;;;;4.25;78.91;100603.02;126688;1098;104477;-78
2020/12/16 10:57:33;;;;;;;39.93;20.87;;;;;;;4.23;78.80;100614.20;126424;1093;104491;-78
2020/12/16 11:00:01;;;;;;;41.60;22.73;;;;;;;4.21;79.58;100619.38;126388;1096;104631;-78
2020/12/16 11:02:28;;;;;;;35.43;19.40;;;;;;;4.21;79.45;100615.94;126577;1093;104458;-78
2020/12/16 11:04:55;;;;;;;39.37;21.07;;;;;;;4.19;79.48;100605.61;126635;1093;104416;-78
2020/12/16 11:07:23;;;;;;;40.07;21.23;;;;;;;4.24;79.21;100606.46;126684;1093;104458;-78
2020/12/16 11:09:50;;;;;;;40.13;21.63;;;;;;;4.25;79.72;100608.17;126462;1093;104580;-78
2020/12/16 11:12:17;;;;;;;39.63;22.83;;;;;;;4.28;79.30;100609.03;126430;1093;104451;-78
2020/12/16 11:14:44;;;;;;;38.17;21.00;;;;;;;4.28;79.23;100607.31;126748;1093;104490;-78
2020/12/16 11:17:11;;;;;;;39.53;20.60;;;;;;;4.26;78.97;100614.20;126465;1100;104547;-78
2020/12/16 11:19:39;;;;;;;38.60;21.30;;;;;;;4.28;78.93;100616.78;126647;1098;104600;-78
2020/12/16 11:22:07;;;;;;;37.60;21.63;;;;;;;4.30;79.69;100613.33;126594;1093;104392;-78
2020/12/16 11:24:34;;;;;;;41.87;21.53;;;;;;;4.33;79.65;100618.52;126706;1093;103355;-78